sensor_id;sensor_type;location;lat;lon;timestamp;P1;durP1;ratioP1;P2;durP2;ratioP2
75937;SDS011;64615;32.062;34.834;2023-06-14T00:01:24;10.82;;;3.83;;
75937;SDS011;64615;32.062;34.834;2023-06-14T00:03:50;13.35;;;3.47;;
75937;SDS011;64615;32.062;34.834;2023-06-14T00:06:15;7.72;;;3.10;;
75937;SDS011;64615;32.062;34.834;2023-06-14T00:08:42;18.88;;;3.30;;
75937;SDS011;64615;32.062;34.834;2023-06-14T00:11:08;9.98;;;3.42;;
75937;SDS011;64615;32.062;34.834;2023-06-14T00:13:33;9.45;;;3.15;;
75937;SDS011;64615;32.062;34.834;2023-06-14T00:15:59;9.57;;;3.67;;
75937;SDS011;64615;32.062;34.834;2023-06-14T00:18:25;8.35;;;3.20;;
75937;SDS011;64615;32.062;34.834;2023-06-14T00:20:54;10.65;;;3.20;;
75937;SDS011;64615;32.062;34.834;2023-06-14T00:23:20;8.93;;;3.17;;
75937;SDS011;64615;32.062;34.834;2023-06-14T00:25:46;7.65;;;3.38;;
75937;SDS011;64615;32.062;34.834;2023-06-14T00:28:11;11.75;;;3.53;;
75937;SDS011;64615;32.062;34.834;2023-06-14T00:30:37;8.27;;;3.25;;
75937;SDS011;64615;32.062;34.834;2023-06-14T00:33:03;7.88;;;3.30;;
75937;SDS011;64615;32.062;34.834;2023-06-14T00:35:29;8.15;;;3.53;;
75937;SDS011;64615;32.062;34.834;2023-06-14T00:37:55;9.65;;;3.20;;
75937;SDS011;64615;32.062;34.834;2023-06-14T00:40:21;5.95;;;2.88;;
75937;SDS011;64615;32.062;34.834;2023-06-14T00:42:47;8.98;;;3.28;;
75937;SDS011;64615;32.062;34.834;2023-06-14T00:45:12;7.25;;;3.25;;
75937;SDS011;64615;32.062;34.834;2023-06-14T00:47:38;10.48;;;3.33;;
75937;SDS011;64615;32.062;34.834;2023-06-14T00:50:06;7.35;;;3.30;;
75937;SDS011;64615;32.062;34.834;2023-06-14T00:52:34;9.68;;;2.92;;
75937;SDS011;64615;32.062;34.834;2023-06-14T00:55:00;9.35;;;3.58;;
75937;SDS011;64615;32.062;34.834;2023-06-14T00:57:26;8.65;;;3.08;;
75937;SDS011;64615;32.062;34.834;2023-06-14T00:59:52;9.68;;;3.13;;
75937;SDS011;64615;32.062;34.834;2023-06-14T01:02:19;7.18;;;2.75;;
75937;SDS011;64615;32.062;34.834;2023-06-14T01:04:46;7.38;;;3.40;;
75937;SDS011;64615;32.062;34.834;2023-06-14T01:13:19;8.48;;;3.22;;
75937;SDS011;64615;32.062;34.834;2023-06-14T01:15:47;7.78;;;3.20;;
75937;SDS011;64615;32.062;34.834;2023-06-14T01:18:15;7.45;;;3.47;;
75937;SDS011;64615;32.062;34.834;2023-06-14T01:20:44;7.30;;;3.20;;
75937;SDS011;64615;32.062;34.834;2023-06-14T01:23:15;8.45;;;3.35;;
75937;SDS011;64615;32.062;34.834;2023-06-14T01:25:45;8.38;;;2.90;;
75937;SDS011;64615;32.062;34.834;2023-06-14T01:28:12;7.75;;;3.08;;
75937;SDS011;64615;32.062;34.834;2023-06-14T01:30:42;9.43;;;2.88;;
75937;SDS011;64615;32.062;34.834;2023-06-14T01:33:16;8.68;;;3.30;;
75937;SDS011;64615;32.062;34.834;2023-06-14T01:35:47;8.43;;;3.13;;
75937;SDS011;64615;32.062;34.834;2023-06-14T01:38:14;8.32;;;3.08;;
75937;SDS011;64615;32.062;34.834;2023-06-14T01:40:42;7.97;;;3.08;;
75937;SDS011;64615;32.062;34.834;2023-06-14T01:43:10;6.68;;;3.05;;
75937;SDS011;64615;32.062;34.834;2023-06-14T01:45:38;7.47;;;3.00;;
75937;SDS011;64615;32.062;34.834;2023-06-14T01:48:05;8.30;;;2.80;;
75937;SDS011;64615;32.062;34.834;2023-06-14T01:50:31;6.70;;;2.60;;
75937;SDS011;64615;32.062;34.834;2023-06-14T01:52:57;8.35;;;2.90;;
75937;SDS011;64615;32.062;34.834;2023-06-14T01:55:23;8.15;;;3.08;;
75937;SDS011;64615;32.062;34.834;2023-06-14T01:57:52;6.68;;;3.10;;
75937;SDS011;64615;32.062;34.834;2023-06-14T02:00:19;5.85;;;2.80;;
75937;SDS011;64615;32.062;34.834;2023-06-14T02:02:46;7.30;;;2.80;;
75937;SDS011;64615;32.062;34.834;2023-06-14T02:05:12;7.20;;;2.80;;
75937;SDS011;64615;32.062;34.834;2023-06-14T02:07:37;7.93;;;3.42;;
75937;SDS011;64615;32.062;34.834;2023-06-14T02:10:04;7.72;;;3.35;;
75937;SDS011;64615;32.062;34.834;2023-06-14T02:12:30;11.07;;;3.10;;
75937;SDS011;64615;32.062;34.834;2023-06-14T02:14:55;8.30;;;2.97;;
75937;SDS011;64615;32.062;34.834;2023-06-14T02:17:21;8.85;;;3.20;;
75937;SDS011;64615;32.062;34.834;2023-06-14T02:19:47;7.85;;;2.90;;
75937;SDS011;64615;32.062;34.834;2023-06-14T02:22:14;7.75;;;3.20;;
75937;SDS011;64615;32.062;34.834;2023-06-14T02:24:40;5.97;;;2.90;;
75937;SDS011;64615;32.062;34.834;2023-06-14T02:27:07;8.30;;;3.22;;
75937;SDS011;64615;32.062;34.834;2023-06-14T02:29:35;8.50;;;3.40;;
75937;SDS011;64615;32.062;34.834;2023-06-14T02:32:02;7.90;;;2.85;;
75937;SDS011;64615;32.062;34.834;2023-06-14T02:34:28;7.28;;;3.15;;
75937;SDS011;64615;32.062;34.834;2023-06-14T02:36:53;8.23;;;3.20;;
75937;SDS011;64615;32.062;34.834;2023-06-14T02:39:20;6.65;;;3.15;;
75937;SDS011;64615;32.062;34.834;2023-06-14T02:41:48;9.73;;;3.25;;
75937;SDS011;64615;32.062;34.834;2023-06-14T02:44:23;7.95;;;2.95;;
75937;SDS011;64615;32.062;34.834;2023-06-14T02:46:52;5.57;;;2.90;;
75937;SDS011;64615;32.062;34.834;2023-06-14T02:49:18;5.13;;;2.80;;
75937;SDS011;64615;32.062;34.834;2023-06-14T02:51:43;6.97;;;2.60;;
75937;SDS011;64615;32.062;34.834;2023-06-14T02:54:09;5.07;;;2.35;;
75937;SDS011;64615;32.062;34.834;2023-06-14T02:56:35;6.57;;;2.67;;
75937;SDS011;64615;32.062;34.834;2023-06-14T02:59:01;4.97;;;2.30;;
75937;SDS011;64615;32.062;34.834;2023-06-14T03:01:27;5.28;;;2.30;;
75937;SDS011;64615;32.062;34.834;2023-06-14T03:03:59;4.18;;;2.30;;
75937;SDS011;64615;32.062;34.834;2023-06-14T03:06:28;5.60;;;2.22;;
75937;SDS011;64615;32.062;34.834;2023-06-14T03:08:58;4.95;;;2.38;;
75937;SDS011;64615;32.062;34.834;2023-06-14T03:11:27;5.82;;;2.40;;
75937;SDS011;64615;32.062;34.834;2023-06-14T03:13:53;4.78;;;2.35;;
75937;SDS011;64615;32.062;34.834;2023-06-14T03:16:20;5.68;;;2.35;;
75937;SDS011;64615;32.062;34.834;2023-06-14T03:18:50;4.15;;;2.25;;
75937;SDS011;64615;32.062;34.834;2023-06-14T03:21:17;5.15;;;2.38;;
75937;SDS011;64615;32.062;34.834;2023-06-14T03:23:44;5.75;;;2.40;;
75937;SDS011;64615;32.062;34.834;2023-06-14T03:26:10;5.68;;;2.20;;
75937;SDS011;64615;32.062;34.834;2023-06-14T03:28:46;4.60;;;2.00;;
75937;SDS011;64615;32.062;34.834;2023-06-14T03:31:13;5.25;;;2.20;;
75937;SDS011;64615;32.062;34.834;2023-06-14T03:33:39;5.90;;;2.47;;
75937;SDS011;64615;32.062;34.834;2023-06-14T03:36:05;6.70;;;2.70;;
75937;SDS011;64615;32.062;34.834;2023-06-14T03:38:32;7.05;;;2.40;;
75937;SDS011;64615;32.062;34.834;2023-06-14T03:40:57;7.00;;;2.78;;
75937;SDS011;64615;32.062;34.834;2023-06-14T03:43:23;8.93;;;2.53;;
75937;SDS011;64615;32.062;34.834;2023-06-14T03:45:48;11.10;;;3.10;;
75937;SDS011;64615;32.062;34.834;2023-06-14T03:48:14;12.10;;;3.75;;
75937;SDS011;64615;32.062;34.834;2023-06-14T03:50:40;32.22;;;5.18;;
75937;SDS011;64615;32.062;34.834;2023-06-14T03:53:07;17.48;;;4.07;;
75937;SDS011;64615;32.062;34.834;2023-06-14T03:55:33;22.42;;;4.88;;
75937;SDS011;64615;32.062;34.834;2023-06-14T03:58:00;17.27;;;4.70;;
75937;SDS011;64615;32.062;34.834;2023-06-14T04:00:25;21.20;;;5.13;;
75937;SDS011;64615;32.062;34.834;2023-06-14T04:02:51;18.15;;;4.97;;
75937;SDS011;64615;32.062;34.834;2023-06-14T04:05:18;18.38;;;4.93;;
75937;SDS011;64615;32.062;34.834;2023-06-14T04:07:44;23.67;;;6.07;;
75937;SDS011;64615;32.062;34.834;2023-06-14T04:10:14;25.58;;;5.93;;
75937;SDS011;64615;32.062;34.834;2023-06-14T04:12:40;20.30;;;6.10;;
75937;SDS011;64615;32.062;34.834;2023-06-14T04:15:07;18.83;;;6.10;;
75937;SDS011;64615;32.062;34.834;2023-06-14T04:17:34;28.35;;;6.20;;
75937;SDS011;64615;32.062;34.834;2023-06-14T04:20:00;21.10;;;5.82;;
75937;SDS011;64615;32.062;34.834;2023-06-14T04:22:26;20.60;;;5.93;;
75937;SDS011;64615;32.062;34.834;2023-06-14T04:24:55;22.23;;;6.65;;
75937;SDS011;64615;32.062;34.834;2023-06-14T04:27:25;21.58;;;6.47;;
75937;SDS011;64615;32.062;34.834;2023-06-14T04:29:52;14.88;;;6.45;;
75937;SDS011;64615;32.062;34.834;2023-06-14T04:32:25;18.08;;;5.97;;
75937;SDS011;64615;32.062;34.834;2023-06-14T04:34:57;18.40;;;6.68;;
75937;SDS011;64615;32.062;34.834;2023-06-14T04:37:24;17.20;;;6.45;;
75937;SDS011;64615;32.062;34.834;2023-06-14T04:39:54;17.75;;;6.43;;
75937;SDS011;64615;32.062;34.834;2023-06-14T04:42:21;16.05;;;6.45;;
75937;SDS011;64615;32.062;34.834;2023-06-14T04:44:50;20.27;;;7.75;;
75937;SDS011;64615;32.062;34.834;2023-06-14T04:47:17;19.83;;;7.07;;
75937;SDS011;64615;32.062;34.834;2023-06-14T04:49:43;22.08;;;6.88;;
75937;SDS011;64615;32.062;34.834;2023-06-14T04:52:09;20.63;;;7.20;;
75937;SDS011;64615;32.062;34.834;2023-06-14T04:54:39;30.45;;;7.22;;
75937;SDS011;64615;32.062;34.834;2023-06-14T04:57:07;19.88;;;6.97;;
75937;SDS011;64615;32.062;34.834;2023-06-14T04:59:33;24.85;;;7.70;;
75937;SDS011;64615;32.062;34.834;2023-06-14T05:02:00;26.23;;;8.88;;
75937;SDS011;64615;32.062;34.834;2023-06-14T05:04:26;25.27;;;8.45;;
75937;SDS011;64615;32.062;34.834;2023-06-14T05:06:53;25.05;;;9.18;;
75937;SDS011;64615;32.062;34.834;2023-06-14T05:09:22;25.33;;;9.07;;
75937;SDS011;64615;32.062;34.834;2023-06-14T05:11:48;19.48;;;9.60;;
75937;SDS011;64615;32.062;34.834;2023-06-14T05:14:15;19.33;;;9.02;;
75937;SDS011;64615;32.062;34.834;2023-06-14T05:16:41;20.67;;;10.35;;
75937;SDS011;64615;32.062;34.834;2023-06-14T05:19:07;20.30;;;9.93;;
75937;SDS011;64615;32.062;34.834;2023-06-14T05:21:33;19.80;;;9.75;;
75937;SDS011;64615;32.062;34.834;2023-06-14T05:23:59;16.35;;;10.25;;
75937;SDS011;64615;32.062;34.834;2023-06-14T05:26:26;21.80;;;10.95;;
75937;SDS011;64615;32.062;34.834;2023-06-14T05:28:57;23.50;;;11.75;;
75937;SDS011;64615;32.062;34.834;2023-06-14T05:31:23;22.50;;;12.73;;
75937;SDS011;64615;32.062;34.834;2023-06-14T05:33:50;19.83;;;11.95;;
75937;SDS011;64615;32.062;34.834;2023-06-14T05:36:16;25.48;;;12.73;;
75937;SDS011;64615;32.062;34.834;2023-06-14T05:38:43;23.98;;;12.32;;
75937;SDS011;64615;32.062;34.834;2023-06-14T05:41:08;23.55;;;12.18;;
75937;SDS011;64615;32.062;34.834;2023-06-14T05:43:34;21.77;;;13.63;;
75937;SDS011;64615;32.062;34.834;2023-06-14T05:46:00;27.52;;;14.05;;
75937;SDS011;64615;32.062;34.834;2023-06-14T05:48:25;27.25;;;14.18;;
75937;SDS011;64615;32.062;34.834;2023-06-14T05:50:51;26.40;;;14.55;;
75937;SDS011;64615;32.062;34.834;2023-06-14T05:53:16;23.45;;;14.77;;
75937;SDS011;64615;32.062;34.834;2023-06-14T05:55:42;26.73;;;14.75;;
75937;SDS011;64615;32.062;34.834;2023-06-14T05:58:08;21.52;;;13.85;;
75937;SDS011;64615;32.062;34.834;2023-06-14T06:00:34;23.08;;;14.32;;
75937;SDS011;64615;32.062;34.834;2023-06-14T06:02:59;22.48;;;14.40;;
75937;SDS011;64615;32.062;34.834;2023-06-14T06:05:26;19.52;;;13.15;;
75937;SDS011;64615;32.062;34.834;2023-06-14T06:07:51;22.83;;;14.63;;
75937;SDS011;64615;32.062;34.834;2023-06-14T06:10:17;19.38;;;14.73;;
75937;SDS011;64615;32.062;34.834;2023-06-14T06:12:42;21.60;;;13.55;;
75937;SDS011;64615;32.062;34.834;2023-06-14T06:15:08;20.25;;;14.55;;
75937;SDS011;64615;32.062;34.834;2023-06-14T06:17:38;20.75;;;14.35;;
75937;SDS011;64615;32.062;34.834;2023-06-14T06:20:05;16.58;;;13.35;;
75937;SDS011;64615;32.062;34.834;2023-06-14T06:22:33;21.40;;;13.45;;
75937;SDS011;64615;32.062;34.834;2023-06-14T06:24:59;22.40;;;13.02;;
75937;SDS011;64615;32.062;34.834;2023-06-14T06:27:25;25.45;;;14.70;;
75937;SDS011;64615;32.062;34.834;2023-06-14T06:29:51;21.27;;;13.82;;
75937;SDS011;64615;32.062;34.834;2023-06-14T06:32:17;25.02;;;13.27;;
75937;SDS011;64615;32.062;34.834;2023-06-14T06:34:43;22.08;;;13.57;;
75937;SDS011;64615;32.062;34.834;2023-06-14T06:37:08;22.73;;;14.35;;
75937;SDS011;64615;32.062;34.834;2023-06-14T06:39:34;25.35;;;14.20;;
75937;SDS011;64615;32.062;34.834;2023-06-14T06:42:00;24.95;;;14.23;;
75937;SDS011;64615;32.062;34.834;2023-06-14T06:44:26;24.00;;;14.25;;
75937;SDS011;64615;32.062;34.834;2023-06-14T06:46:51;28.27;;;15.27;;
75937;SDS011;64615;32.062;34.834;2023-06-14T06:49:17;22.52;;;15.57;;
75937;SDS011;64615;32.062;34.834;2023-06-14T06:51:42;25.23;;;15.27;;
75937;SDS011;64615;32.062;34.834;2023-06-14T06:54:10;20.20;;;15.52;;
75937;SDS011;64615;32.062;34.834;2023-06-14T06:56:36;21.23;;;14.75;;
75937;SDS011;64615;32.062;34.834;2023-06-14T06:59:01;26.10;;;16.23;;
75937;SDS011;64615;32.062;34.834;2023-06-14T07:01:27;24.95;;;16.98;;
75937;SDS011;64615;32.062;34.834;2023-06-14T07:03:54;25.25;;;16.92;;
75937;SDS011;64615;32.062;34.834;2023-06-14T07:06:20;26.92;;;17.05;;
75937;SDS011;64615;32.062;34.834;2023-06-14T07:08:46;32.70;;;17.00;;
75937;SDS011;64615;32.062;34.834;2023-06-14T07:11:15;26.13;;;17.58;;
75937;SDS011;64615;32.062;34.834;2023-06-14T07:13:41;28.80;;;17.73;;
75937;SDS011;64615;32.062;34.834;2023-06-14T07:16:06;30.73;;;17.83;;
75937;SDS011;64615;32.062;34.834;2023-06-14T07:18:32;26.77;;;18.33;;
75937;SDS011;64615;32.062;34.834;2023-06-14T07:20:58;34.33;;;18.95;;
75937;SDS011;64615;32.062;34.834;2023-06-14T07:23:23;26.48;;;18.83;;
75937;SDS011;64615;32.062;34.834;2023-06-14T07:25:50;29.02;;;18.88;;
75937;SDS011;64615;32.062;34.834;2023-06-14T07:28:16;27.90;;;18.50;;
75937;SDS011;64615;32.062;34.834;2023-06-14T07:30:43;27.40;;;17.25;;
75937;SDS011;64615;32.062;34.834;2023-06-14T07:33:08;25.92;;;18.08;;
75937;SDS011;64615;32.062;34.834;2023-06-14T07:35:35;24.25;;;18.63;;
75937;SDS011;64615;32.062;34.834;2023-06-14T07:38:01;33.88;;;18.73;;
75937;SDS011;64615;32.062;34.834;2023-06-14T07:40:26;29.38;;;18.38;;
75937;SDS011;64615;32.062;34.834;2023-06-14T07:42:52;25.98;;;18.20;;
75937;SDS011;64615;32.062;34.834;2023-06-14T07:45:19;26.55;;;18.17;;
75937;SDS011;64615;32.062;34.834;2023-06-14T07:47:45;26.38;;;17.23;;
75937;SDS011;64615;32.062;34.834;2023-06-14T07:50:11;26.20;;;17.90;;
75937;SDS011;64615;32.062;34.834;2023-06-14T07:52:38;20.23;;;17.52;;
75937;SDS011;64615;32.062;34.834;2023-06-14T07:55:05;24.33;;;18.00;;
75937;SDS011;64615;32.062;34.834;2023-06-14T07:57:30;29.88;;;18.27;;
75937;SDS011;64615;32.062;34.834;2023-06-14T07:59:56;34.65;;;18.88;;
75937;SDS011;64615;32.062;34.834;2023-06-14T08:02:22;31.10;;;19.58;;
75937;SDS011;64615;32.062;34.834;2023-06-14T08:04:47;25.15;;;18.17;;
75937;SDS011;64615;32.062;34.834;2023-06-14T08:07:13;30.13;;;18.45;;
75937;SDS011;64615;32.062;34.834;2023-06-14T08:09:40;25.27;;;18.30;;
75937;SDS011;64615;32.062;34.834;2023-06-14T08:12:06;24.98;;;18.58;;
75937;SDS011;64615;32.062;34.834;2023-06-14T08:14:33;27.13;;;17.63;;
75937;SDS011;64615;32.062;34.834;2023-06-14T08:16:59;26.23;;;18.00;;
75937;SDS011;64615;32.062;34.834;2023-06-14T08:19:24;24.85;;;17.20;;
75937;SDS011;64615;32.062;34.834;2023-06-14T08:21:50;22.95;;;19.10;;
75937;SDS011;64615;32.062;34.834;2023-06-14T08:24:16;25.40;;;16.77;;
75937;SDS011;64615;32.062;34.834;2023-06-14T08:26:42;24.50;;;16.13;;
75937;SDS011;64615;32.062;34.834;2023-06-14T08:29:08;28.48;;;17.23;;
75937;SDS011;64615;32.062;34.834;2023-06-14T08:31:33;20.75;;;16.15;;
75937;SDS011;64615;32.062;34.834;2023-06-14T08:33:59;27.63;;;17.38;;
75937;SDS011;64615;32.062;34.834;2023-06-14T08:36:25;22.80;;;16.88;;
75937;SDS011;64615;32.062;34.834;2023-06-14T08:38:50;20.27;;;14.60;;
75937;SDS011;64615;32.062;34.834;2023-06-14T08:41:22;20.27;;;12.23;;
75937;SDS011;64615;32.062;34.834;2023-06-14T08:43:50;19.77;;;11.77;;
75937;SDS011;64615;32.062;34.834;2023-06-14T08:46:17;19.50;;;11.25;;
75937;SDS011;64615;32.062;34.834;2023-06-14T08:48:46;18.02;;;10.60;;
75937;SDS011;64615;32.062;34.834;2023-06-14T08:51:14;20.60;;;10.77;;
75937;SDS011;64615;32.062;34.834;2023-06-14T08:53:43;15.82;;;10.18;;
75937;SDS011;64615;32.062;34.834;2023-06-14T08:56:09;18.73;;;10.25;;
75937;SDS011;64615;32.062;34.834;2023-06-14T08:58:44;15.30;;;10.10;;
75937;SDS011;64615;32.062;34.834;2023-06-14T09:01:13;28.27;;;9.90;;
75937;SDS011;64615;32.062;34.834;2023-06-14T09:03:41;15.88;;;8.95;;
75937;SDS011;64615;32.062;34.834;2023-06-14T09:06:08;16.15;;;9.73;;
75937;SDS011;64615;32.062;34.834;2023-06-14T09:08:40;17.70;;;8.55;;
75937;SDS011;64615;32.062;34.834;2023-06-14T09:11:12;14.98;;;8.27;;
75937;SDS011;64615;32.062;34.834;2023-06-14T09:13:39;28.98;;;9.75;;
75937;SDS011;64615;32.062;34.834;2023-06-14T09:16:06;25.25;;;8.13;;
75937;SDS011;64615;32.062;34.834;2023-06-14T09:18:35;17.30;;;8.50;;
75937;SDS011;64615;32.062;34.834;2023-06-14T09:21:01;20.25;;;7.97;;
75937;SDS011;64615;32.062;34.834;2023-06-14T09:23:27;16.00;;;7.18;;
75937;SDS011;64615;32.062;34.834;2023-06-14T09:25:52;17.35;;;7.75;;
75937;SDS011;64615;32.062;34.834;2023-06-14T09:28:18;14.68;;;7.28;;
75937;SDS011;64615;32.062;34.834;2023-06-14T09:30:45;12.07;;;6.90;;
75937;SDS011;64615;32.062;34.834;2023-06-14T09:33:11;8.27;;;6.30;;
75937;SDS011;64615;32.062;34.834;2023-06-14T09:35:42;9.38;;;6.45;;
75937;SDS011;64615;32.062;34.834;2023-06-14T09:38:10;7.88;;;6.25;;
75937;SDS011;64615;32.062;34.834;2023-06-14T09:40:36;8.30;;;5.78;;
75937;SDS011;64615;32.062;34.834;2023-06-14T09:43:04;8.82;;;5.60;;
75937;SDS011;64615;32.062;34.834;2023-06-14T09:45:33;7.82;;;5.72;;
75937;SDS011;64615;32.062;34.834;2023-06-14T09:47:59;9.98;;;6.60;;
75937;SDS011;64615;32.062;34.834;2023-06-14T09:50:26;9.32;;;7.13;;
75937;SDS011;64615;32.062;34.834;2023-06-14T09:52:52;8.70;;;6.40;;
75937;SDS011;64615;32.062;34.834;2023-06-14T09:55:22;7.55;;;5.75;;
75937;SDS011;64615;32.062;34.834;2023-06-14T09:57:50;10.05;;;6.25;;
75937;SDS011;64615;32.062;34.834;2023-06-14T10:00:16;7.28;;;5.40;;
75937;SDS011;64615;32.062;34.834;2023-06-14T10:02:46;6.88;;;5.28;;
75937;SDS011;64615;32.062;34.834;2023-06-14T10:05:16;6.72;;;4.60;;
75937;SDS011;64615;32.062;34.834;2023-06-14T10:07:48;7.07;;;5.13;;
75937;SDS011;64615;32.062;34.834;2023-06-14T10:10:20;6.65;;;4.65;;
75937;SDS011;64615;32.062;34.834;2023-06-14T10:12:47;6.43;;;4.60;;
75937;SDS011;64615;32.062;34.834;2023-06-14T10:15:23;5.80;;;4.25;;
75937;SDS011;64615;32.062;34.834;2023-06-14T10:20:42;5.85;;;4.15;;
75937;SDS011;64615;32.062;34.834;2023-06-14T10:23:37;6.70;;;3.92;;
75937;SDS011;64615;32.062;34.834;2023-06-14T10:26:06;6.00;;;4.03;;
75937;SDS011;64615;32.062;34.834;2023-06-14T10:28:31;5.75;;;3.78;;
75937;SDS011;64615;32.062;34.834;2023-06-14T10:31:18;5.50;;;3.95;;
75937;SDS011;64615;32.062;34.834;2023-06-14T10:33:50;5.57;;;3.85;;
75937;SDS011;64615;32.062;34.834;2023-06-14T10:39:00;4.65;;;3.38;;
75937;SDS011;64615;32.062;34.834;2023-06-14T10:41:31;4.70;;;3.20;;
75937;SDS011;64615;32.062;34.834;2023-06-14T10:46:37;5.00;;;3.40;;
75937;SDS011;64615;32.062;34.834;2023-06-14T10:49:03;5.38;;;3.35;;
75937;SDS011;64615;32.062;34.834;2023-06-14T10:51:30;6.40;;;3.33;;
75937;SDS011;64615;32.062;34.834;2023-06-14T10:54:11;5.78;;;3.47;;
75937;SDS011;64615;32.062;34.834;2023-06-14T10:56:50;4.63;;;3.10;;
75937;SDS011;64615;32.062;34.834;2023-06-14T10:59:17;4.68;;;3.03;;
75937;SDS011;64615;32.062;34.834;2023-06-14T11:01:58;5.65;;;3.13;;
75937;SDS011;64615;32.062;34.834;2023-06-14T11:04:51;6.25;;;2.92;;
75937;SDS011;64615;32.062;34.834;2023-06-14T11:12:47;4.55;;;3.00;;
75937;SDS011;64615;32.062;34.834;2023-06-14T11:15:13;4.72;;;2.90;;
75937;SDS011;64615;32.062;34.834;2023-06-14T11:17:48;4.78;;;2.97;;
75937;SDS011;64615;32.062;34.834;2023-06-14T11:20:16;5.32;;;3.10;;
75937;SDS011;64615;32.062;34.834;2023-06-14T11:22:42;4.88;;;3.40;;
75937;SDS011;64615;32.062;34.834;2023-06-14T11:25:09;5.20;;;3.05;;
75937;SDS011;64615;32.062;34.834;2023-06-14T11:27:35;5.63;;;3.00;;
75937;SDS011;64615;32.062;34.834;2023-06-14T11:30:01;6.80;;;3.30;;
75937;SDS011;64615;32.062;34.834;2023-06-14T11:32:27;7.43;;;3.28;;
75937;SDS011;64615;32.062;34.834;2023-06-14T11:34:53;6.30;;;3.10;;
75937;SDS011;64615;32.062;34.834;2023-06-14T11:37:19;5.43;;;3.13;;
75937;SDS011;64615;32.062;34.834;2023-06-14T11:39:45;5.80;;;3.20;;
75937;SDS011;64615;32.062;34.834;2023-06-14T11:42:16;5.18;;;2.92;;
75937;SDS011;64615;32.062;34.834;2023-06-14T11:44:45;5.13;;;3.05;;
75937;SDS011;64615;32.062;34.834;2023-06-14T11:47:12;5.35;;;2.75;;
75937;SDS011;64615;32.062;34.834;2023-06-14T11:49:38;5.30;;;2.40;;
75937;SDS011;64615;32.062;34.834;2023-06-14T11:52:04;4.28;;;2.47;;
75937;SDS011;64615;32.062;34.834;2023-06-14T11:54:31;4.80;;;2.75;;
75937;SDS011;64615;32.062;34.834;2023-06-14T11:56:57;4.28;;;2.80;;
75937;SDS011;64615;32.062;34.834;2023-06-14T11:59:24;3.90;;;2.38;;
75937;SDS011;64615;32.062;34.834;2023-06-14T12:01:50;4.20;;;2.33;;
75937;SDS011;64615;32.062;34.834;2023-06-14T12:04:29;4.70;;;2.70;;
75937;SDS011;64615;32.062;34.834;2023-06-14T12:06:55;4.63;;;2.55;;
75937;SDS011;64615;32.062;34.834;2023-06-14T12:09:22;4.28;;;2.35;;
75937;SDS011;64615;32.062;34.834;2023-06-14T12:11:51;4.10;;;2.53;;
75937;SDS011;64615;32.062;34.834;2023-06-14T12:14:29;3.80;;;2.40;;
75937;SDS011;64615;32.062;34.834;2023-06-14T12:17:06;4.47;;;2.70;;
75937;SDS011;64615;32.062;34.834;2023-06-14T12:19:32;4.55;;;2.50;;
75937;SDS011;64615;32.062;34.834;2023-06-14T12:22:01;3.65;;;2.22;;
75937;SDS011;64615;32.062;34.834;2023-06-14T12:24:30;4.28;;;2.30;;
75937;SDS011;64615;32.062;34.834;2023-06-14T12:26:57;4.38;;;2.45;;
75937;SDS011;64615;32.062;34.834;2023-06-14T12:29:28;4.25;;;2.30;;
75937;SDS011;64615;32.062;34.834;2023-06-14T12:31:54;4.72;;;2.50;;
75937;SDS011;64615;32.062;34.834;2023-06-14T12:34:22;5.97;;;2.20;;
75937;SDS011;64615;32.062;34.834;2023-06-14T12:36:49;5.32;;;2.35;;
75937;SDS011;64615;32.062;34.834;2023-06-14T12:39:16;4.80;;;1.90;;
75937;SDS011;64615;32.062;34.834;2023-06-14T12:41:42;4.38;;;2.50;;
75937;SDS011;64615;32.062;34.834;2023-06-14T12:44:07;4.75;;;2.25;;
75937;SDS011;64615;32.062;34.834;2023-06-14T12:46:33;5.30;;;2.25;;
75937;SDS011;64615;32.062;34.834;2023-06-14T12:49:04;11.75;;;3.10;;
75937;SDS011;64615;32.062;34.834;2023-06-14T12:51:30;13.93;;;3.67;;
75937;SDS011;64615;32.062;34.834;2023-06-14T12:53:56;9.15;;;4.00;;
75937;SDS011;64615;32.062;34.834;2023-06-14T12:56:21;10.55;;;4.38;;
75937;SDS011;64615;32.062;34.834;2023-06-14T12:58:47;12.57;;;4.22;;
75937;SDS011;64615;32.062;34.834;2023-06-14T13:01:13;13.13;;;4.75;;
75937;SDS011;64615;32.062;34.834;2023-06-14T13:03:38;13.02;;;4.90;;
75937;SDS011;64615;32.062;34.834;2023-06-14T13:06:04;12.07;;;4.47;;
75937;SDS011;64615;32.062;34.834;2023-06-14T13:08:30;9.85;;;4.28;;
75937;SDS011;64615;32.062;34.834;2023-06-14T13:10:56;10.82;;;4.72;;
75937;SDS011;64615;32.062;34.834;2023-06-14T13:13:22;12.10;;;4.45;;
75937;SDS011;64615;32.062;34.834;2023-06-14T13:15:48;9.23;;;4.07;;
75937;SDS011;64615;32.062;34.834;2023-06-14T13:18:15;8.55;;;4.32;;
75937;SDS011;64615;32.062;34.834;2023-06-14T13:20:40;12.07;;;4.47;;
75937;SDS011;64615;32.062;34.834;2023-06-14T13:23:07;11.43;;;4.40;;
75937;SDS011;64615;32.062;34.834;2023-06-14T13:25:36;12.32;;;4.55;;
75937;SDS011;64615;32.062;34.834;2023-06-14T13:28:03;13.65;;;4.50;;
75937;SDS011;64615;32.062;34.834;2023-06-14T13:30:30;10.50;;;3.97;;
75937;SDS011;64615;32.062;34.834;2023-06-14T13:32:56;10.18;;;4.43;;
75937;SDS011;64615;32.062;34.834;2023-06-14T13:35:22;9.23;;;4.20;;
75937;SDS011;64615;32.062;34.834;2023-06-14T13:37:48;8.93;;;4.25;;
75937;SDS011;64615;32.062;34.834;2023-06-14T13:40:14;12.40;;;4.55;;
75937;SDS011;64615;32.062;34.834;2023-06-14T13:42:40;10.70;;;4.43;;
75937;SDS011;64615;32.062;34.834;2023-06-14T13:45:06;8.52;;;4.80;;
75937;SDS011;64615;32.062;34.834;2023-06-14T13:47:33;9.32;;;4.50;;
75937;SDS011;64615;32.062;34.834;2023-06-14T13:49:59;8.13;;;3.97;;
75937;SDS011;64615;32.062;34.834;2023-06-14T13:52:24;12.18;;;4.30;;
75937;SDS011;64615;32.062;34.834;2023-06-14T13:54:51;8.82;;;4.28;;
75937;SDS011;64615;32.062;34.834;2023-06-14T13:57:17;11.15;;;4.57;;
75937;SDS011;64615;32.062;34.834;2023-06-14T13:59:43;11.30;;;4.95;;
75937;SDS011;64615;32.062;34.834;2023-06-14T14:02:12;8.30;;;4.43;;
75937;SDS011;64615;32.062;34.834;2023-06-14T14:04:38;12.35;;;4.85;;
75937;SDS011;64615;32.062;34.834;2023-06-14T14:07:05;10.63;;;4.60;;
75937;SDS011;64615;32.062;34.834;2023-06-14T14:09:31;10.93;;;4.80;;
75937;SDS011;64615;32.062;34.834;2023-06-14T14:11:58;11.77;;;5.20;;
75937;SDS011;64615;32.062;34.834;2023-06-14T14:14:24;9.80;;;4.95;;
75937;SDS011;64615;32.062;34.834;2023-06-14T14:16:50;10.98;;;5.00;;
75937;SDS011;64615;32.062;34.834;2023-06-14T14:19:22;9.80;;;5.30;;
75937;SDS011;64615;32.062;34.834;2023-06-14T14:21:48;11.55;;;5.30;;
75937;SDS011;64615;32.062;34.834;2023-06-14T14:24:14;12.45;;;5.28;;
75937;SDS011;64615;32.062;34.834;2023-06-14T14:26:41;8.88;;;5.18;;
75937;SDS011;64615;32.062;34.834;2023-06-14T14:29:07;10.48;;;5.75;;
75937;SDS011;64615;32.062;34.834;2023-06-14T14:31:33;8.65;;;5.18;;
75937;SDS011;64615;32.062;34.834;2023-06-14T14:33:59;12.90;;;5.35;;
75937;SDS011;64615;32.062;34.834;2023-06-14T14:36:24;9.95;;;5.10;;
75937;SDS011;64615;32.062;34.834;2023-06-14T14:38:50;9.65;;;5.55;;
75937;SDS011;64615;32.062;34.834;2023-06-14T14:41:17;11.95;;;5.65;;
75937;SDS011;64615;32.062;34.834;2023-06-14T14:43:43;9.50;;;5.50;;